Apalachia Observed Data For Previous 48 Hours

Caption
Day and Hour Reservoir Elevation (behind dam)* Tailwater Elevation (below dam)* Average Hourly Discharge*
12/9/2017 2 AM EST 1,277.55 837.76 47
12/9/2017 3 AM EST 1,277.57 839.51 1,443
12/9/2017 4 AM EST 1,277.38 839.52 1,443
12/9/2017 5 AM EST 1,277.26 839.64 1,453
12/9/2017 6 AM EST 1,277.31 840.55 2,828
12/9/2017 7 AM EST 1,277.45 840.56 2,844
12/9/2017 8 AM EST 1,277.52 840.55 2,856
12/9/2017 9 AM EST 1,277.55 840.55 2,850
12/9/2017 10 AM EST 1,277.61 840.55 2,844
12/9/2017 11 AM EST 1,277.61 840.55 2,839
12/9/2017 12 PM EST 1,277.72 840.55 2,845
12/9/2017 1 PM EST 1,277.77 840.56 2,841
12/9/2017 2 PM EST 1,277.46 839.51 1,491
12/9/2017 3 PM EST 1,277.49 837.47 73
12/9/2017 4 PM EST 1,277.46 837.46 30
12/9/2017 5 PM EST 1,277.46 837.60 36
12/9/2017 6 PM EST 1,277.43 839.50 1,430
12/9/2017 7 PM EST 1,277.29 839.63 1,449
12/9/2017 8 PM EST 1,277.37 840.56 2,840
12/9/2017 9 PM EST 1,277.43 840.55 2,845
12/9/2017 10 PM EST 1,277.49 840.56 2,839
12/9/2017 11 PM EST 1,277.49 840.55 2,835
12/10/2017 12 AM EST 1,277.60 840.55 2,833
12/10/2017 1 AM EST 1,277.59 839.52 1,499
12/10/2017 2 AM EST 1,277.49 839.51 1,440
12/10/2017 3 AM EST 1,277.29 839.51 1,444
12/10/2017 4 AM EST 1,277.20 839.51 1,440
12/10/2017 5 AM EST 1,277.26 839.50 1,442
12/10/2017 6 AM EST 1,277.04 839.57 1,444
12/10/2017 7 AM EST 1,276.96 840.56 2,827
12/10/2017 8 AM EST 1,277.08 840.54 2,853
12/10/2017 9 AM EST 1,277.48 840.56 2,844
12/10/2017 10 AM EST 1,277.98 840.56 2,843
12/10/2017 11 AM EST 1,277.93 839.49 1,499
12/10/2017 12 PM EST 1,277.74 839.51 1,439
12/10/2017 1 PM EST 1,277.90 839.50 1,440
12/10/2017 2 PM EST 1,277.28 839.50 1,437
12/10/2017 3 PM EST 1,277.36 837.44 72
12/10/2017 4 PM EST 1,277.37 837.43 30
12/10/2017 5 PM EST 1,277.30 837.50 37
12/10/2017 6 PM EST 1,277.20 839.45 1,414
12/10/2017 7 PM EST 1,277.31 839.43 1,428
12/10/2017 8 PM EST 1,277.47 839.43 1,430
12/10/2017 9 PM EST 1,277.66 839.43 1,426
12/10/2017 10 PM EST 1,277.98 839.43 1,429
12/10/2017 11 PM EST 1,277.63 839.43 1,424
12/11/2017 12 AM EST 1,277.44 839.43 1,428

Elevations are in feet above sea level. Discharges are in cubic feet per second and are reported at the end of the hour.